This is the latest recevied weather packets stored in our database for station/object W0AVQ. If no packets are shown the sender has not sent any weather packets the latest 10 day(s).
| Time | Temp. | Humidity | Pressure | Rain* | Wind** | Luminosity | Snow |
|---|---|---|---|---|---|---|---|
| 1777476056 | 16.67° C | 82% | 1017.7 hPa | 0 mm | - | 164 W/m² | - |
| 1777475752 | 17.22° C | 79% | 1017.9 hPa | 0 mm | - | 195 W/m² | - |
| 1777475449 | 16.67° C | 81% | 1017.7 hPa | 0 mm | - | 255 W/m² | - |
| 1777475144 | 17.22° C | 82% | 1017.8 hPa | 0 mm | - | 181 W/m² | - |
| 1777474841 | 16.11° C | 85% | 1017.8 hPa | 0 mm | - | 154 W/m² | - |
| 1777474536 | 15.56° C | 85% | 1017.7 hPa | 0 mm | - | 153 W/m² | - |
| 1777474233 | 16.11° C | 84% | 1017.6 hPa | 0 mm | - | 134 W/m² | - |
| 1777473931 | 15.56° C | 84% | 1017.5 hPa | 0 mm | - | 177 W/m² | - |
| 1777473628 | 15° C | 86% | 1017.4 hPa | 0 mm | - | 120 W/m² | - |
| 1777473324 | 15° C | 87% | 1017.4 hPa | 0 mm | - | 88 W/m² | - |
| 1777473020 | 15° C | 89% | 1017.4 hPa | 0 mm | - | 123 W/m² | - |
| 1777472717 | 15.56° C | 88% | 1017.5 hPa | 0 mm | - | 91 W/m² | - |
| 1777472413 | 15° C | 89% | 1017.5 hPa | 0 mm | - | 125 W/m² | - |
| 1777472111 | 15.56° C | 90% | 1017.3 hPa | 0 mm | - | 98 W/m² | - |
| 1777471806 | 15° C | 91% | 1017.2 hPa | 0 mm | - | 111 W/m² | - |
| 1777471503 | 15° C | 92% | 1017.3 hPa | 0 mm | - | 116 W/m² | - |
| 1777471200 | 14.44° C | 92% | 1017.1 hPa | 0 mm | - | 65 W/m² | - |
| 1777470896 | 14.44° C | 91% | 1017.1 hPa | 0 mm | - | 48 W/m² | - |
| 1777470594 | 14.44° C | 92% | 1016.6 hPa | 0 mm | - | 63 W/m² | - |
| 1777470289 | 15° C | 92% | 1016.7 hPa | 0 mm | - | 47 W/m² | - |
| 1777469986 | 15° C | 92% | 1017.1 hPa | 0 mm | - | 45 W/m² | - |
| 1777469682 | 15° C | 92% | 1016.9 hPa | 0 mm | - | 56 W/m² | - |
| 1777469377 | 15° C | 92% | 1016.7 hPa | 0 mm | - | 77 W/m² | - |
| 1777469073 | 15° C | 92% | 1017.1 hPa | 0 mm | - | 81 W/m² | - |
| 1777468773 | 15° C | 93% | 1016.6 hPa | 0 mm | - | 121 W/m² | - |
* Rain latest hour (hover to see other rain measurements)
** Current wind speed in m/s (hover to see current wind gust speed)